createdAt,value
2019-03-09T00:00:36.842Z,100142.56
2019-03-09T00:03:07.970Z,100124.81
2019-03-09T00:05:38.155Z,100125.19
2019-03-09T00:08:08.625Z,100117.03
2019-03-09T00:10:38.873Z,100109.27
2019-03-09T00:13:09.637Z,100104.70
2019-03-09T00:15:39.961Z,100095.25
2019-03-09T00:18:10.698Z,100090.91
2019-03-09T00:20:41.253Z,100089.96
2019-03-09T00:23:18.513Z,100081.55
2019-03-09T00:26:08.683Z,100072.20
2019-03-09T00:28:47.276Z,100065.22
2019-03-09T00:31:36.421Z,100065.22
2019-03-09T00:34:06.994Z,100048.28
2019-03-09T00:36:37.535Z,100045.26
2019-03-09T00:39:07.982Z,100036.09
2019-03-09T00:41:38.214Z,100038.27
2019-03-09T00:44:08.389Z,100029.28
2019-03-09T00:46:38.577Z,100033.44
2019-03-09T00:49:11.122Z,100020.11
2019-03-09T00:51:40.860Z,100018.78
2019-03-09T00:54:11.081Z,100011.22
2019-03-09T00:56:41.617Z,100000.91
2019-03-09T00:59:12.160Z,100002.23
2019-03-09T01:01:42.940Z,99995.82
2019-03-09T01:04:14.482Z,99994.20
2019-03-09T01:06:44.852Z,99984.36
2019-03-09T01:09:15.793Z,99979.53
2019-03-09T01:11:46.017Z,99974.07
2019-03-09T01:14:16.361Z,99962.42
2019-03-09T01:16:46.816Z,99960.05
2019-03-09T01:19:17.375Z,99950.20
2019-03-09T01:21:47.848Z,99951.27
2019-03-09T01:24:18.300Z,99939.07
2019-03-09T01:26:48.905Z,99933.30
2019-03-09T01:29:19.558Z,99923.71
2019-03-09T01:31:49.803Z,99915.11
2019-03-09T01:34:20.634Z,99908.55
2019-03-09T01:36:51.123Z,99905.89
2019-03-09T01:39:21.635Z,99910.23
2019-03-09T01:41:52.479Z,99897.55
2019-03-09T01:44:22.922Z,99904.56
2019-03-09T01:46:53.162Z,99888.72
2019-03-09T01:49:23.732Z,99876.25
2019-03-09T01:51:53.958Z,99867.25
2019-03-09T01:54:24.690Z,99852.78
2019-03-09T01:56:55.171Z,99848.61
2019-03-09T01:59:25.406Z,99842.30
2019-03-09T02:01:55.932Z,99830.11
2019-03-09T02:04:26.203Z,99822.92
2019-03-09T02:06:56.651Z,99811.22
2019-03-09T02:09:27.243Z,99794.48
2019-03-09T02:11:58.573Z,99778.70
2019-03-09T02:14:29.391Z,99767.36
2019-03-09T02:16:59.612Z,99757.32
2019-03-09T02:19:30.656Z,99748.63
2019-03-09T02:22:01.155Z,99742.49
2019-03-09T02:24:32.002Z,99726.13
2019-03-09T02:27:02.346Z,99710.83
2019-03-09T02:29:32.639Z,99703.57
2019-03-09T02:32:02.872Z,99690.81
2019-03-09T02:34:33.536Z,99678.90
2019-03-09T02:37:03.859Z,99669.23
2019-03-09T02:39:42.041Z,99656.95
2019-03-09T02:42:13.057Z,99646.73
2019-03-09T02:44:43.330Z,99639.38
2019-03-09T02:47:13.662Z,99630.41
2019-03-09T02:49:44.262Z,99619.13
2019-03-09T02:52:14.547Z,99615.16
2019-03-09T02:54:45.271Z,99608.53
2019-03-09T02:57:15.503Z,99607.21
2019-03-09T02:59:45.655Z,99598.69
2019-03-09T03:02:49.715Z,99594.45
2019-03-09T03:05:19.896Z,99585.48
2019-03-09T03:07:50.043Z,99572.46
2019-03-09T03:10:20.753Z,99566.21
2019-03-09T03:12:50.988Z,99557.13
2019-03-09T03:15:32.057Z,99554.48
2019-03-09T03:18:02.249Z,99545.22
2019-03-09T03:20:32.819Z,99544.63
2019-03-09T03:23:03.659Z,99533.83
2019-03-09T03:25:33.821Z,99520.08
2019-03-09T03:28:04.006Z,99514.30
2019-03-09T03:30:34.489Z,99508.78
2019-03-09T03:33:05.189Z,99492.65
2019-03-09T03:35:35.652Z,99484.70
2019-03-09T03:38:06.026Z,99480.19
2019-03-09T03:40:36.760Z,99466.11
2019-03-09T03:43:06.989Z,99460.56
2019-03-09T03:45:38.492Z,99458.87
2019-03-09T03:48:08.665Z,99450.70
2019-03-09T03:50:38.854Z,99435.78
2019-03-09T03:53:09.066Z,99417.98
2019-03-09T03:55:39.429Z,99417.88
2019-03-09T03:58:09.960Z,99407.28
2019-03-09T04:00:40.578Z,99394.05
2019-03-09T04:03:11.254Z,99394.39
2019-03-09T04:05:41.440Z,99378.88
2019-03-09T04:08:12.259Z,99373.22
2019-03-09T04:10:42.522Z,99354.55
2019-03-09T04:13:13.316Z,99351.14
2019-03-09T04:15:44.196Z,99341.99
2019-03-09T04:18:14.949Z,99333.21
2019-03-09T04:20:45.783Z,99326.23
2019-03-09T04:23:16.070Z,99331.41
2019-03-09T04:25:46.286Z,99326.95
2019-03-09T04:28:16.742Z,99299.06
2019-03-09T04:30:47.716Z,99316.17
2019-03-09T04:33:17.935Z,99310.66
2019-03-09T04:35:48.313Z,99303.45
2019-03-09T04:38:18.652Z,99294.43
2019-03-09T04:40:49.205Z,99292.43
2019-03-09T04:43:19.826Z,99294.48
2019-03-09T04:45:50.493Z,99282.45
2019-03-09T04:48:20.881Z,99273.20
2019-03-09T04:50:51.133Z,99274.16
2019-03-09T04:53:21.744Z,99266.39
2019-03-09T04:55:52.111Z,99260.49
2019-03-09T04:58:22.257Z,99257.98
2019-03-09T05:00:53.110Z,99253.52
2019-03-09T05:03:23.688Z,99241.52
2019-03-09T05:05:54.049Z,99229.02
2019-03-09T05:08:49.017Z,99220.95
2019-03-09T05:11:23.117Z,99229.30
2019-03-09T05:14:12.712Z,99209.67
2019-03-09T05:16:43.499Z,99212.56
2019-03-09T05:19:13.716Z,99197.94
2019-03-09T05:21:43.948Z,99207.94
2019-03-09T05:24:14.450Z,99212.75
2019-03-09T05:26:45.083Z,99224.70
2019-03-09T05:29:15.725Z,99218.56
2019-03-09T05:31:45.961Z,99225.45
2019-03-09T05:34:16.249Z,99217.88
2019-03-09T05:36:46.726Z,99236.30
2019-03-09T05:39:17.549Z,99216.31
2019-03-09T05:41:48.177Z,99218.72
2019-03-09T05:44:18.693Z,99216.30
2019-03-09T05:46:48.917Z,99214.16
2019-03-09T05:49:19.220Z,99210.91
2019-03-09T05:52:25.367Z,99211.15
2019-03-09T05:54:56.625Z,99208.52
2019-03-09T05:57:26.809Z,99210.80
2019-03-09T05:59:56.987Z,99200.44
2019-03-09T06:02:27.649Z,99212.16
2019-03-09T06:04:57.886Z,99210.58
2019-03-09T06:07:28.088Z,99229.38
2019-03-09T06:09:58.667Z,99266.37
2019-03-09T06:12:28.824Z,99229.61
2019-03-09T06:14:59.265Z,99230.72
2019-03-09T06:17:29.607Z,99234.58
2019-03-09T06:20:00.090Z,99243.73
2019-03-09T06:22:30.543Z,99237.34
2019-03-09T06:25:00.820Z,99252.77
2019-03-09T06:27:30.992Z,99240.84
2019-03-09T06:30:01.177Z,99250.12
2019-03-09T06:33:07.122Z,99253.13
2019-03-09T06:35:37.391Z,99270.72
2019-03-09T06:38:32.494Z,99270.36
2019-03-09T06:41:03.356Z,99275.19
2019-03-09T06:43:34.174Z,99270.36
2019-03-09T06:46:07.403Z,99284.70
2019-03-09T06:48:38.312Z,99268.67
2019-03-09T06:51:08.834Z,99279.16
2019-03-09T06:53:40.289Z,99285.43
2019-03-09T06:56:10.508Z,99287.84
2019-03-09T06:58:41.033Z,99287.72
2019-03-09T07:01:21.047Z,99287.59
2019-03-09T07:03:51.239Z,99298.81
2019-03-09T07:06:23.021Z,99303.28
2019-03-09T07:08:53.773Z,99304.94
2019-03-09T07:11:24.328Z,99318.67
2019-03-09T07:13:56.394Z,99336.27
2019-03-09T07:16:29.176Z,99322.28
2019-03-09T07:19:00.608Z,99343.50
2019-03-09T07:21:33.220Z,99338.47
2019-03-09T07:24:05.202Z,99330.51
2019-03-09T07:26:37.539Z,99336.53
2019-03-09T07:29:09.974Z,99345.70
2019-03-09T07:31:41.299Z,99353.32
2019-03-09T07:34:25.331Z,99354.05
2019-03-09T07:36:57.335Z,99363.92
2019-03-09T07:39:29.914Z,99362.48
2019-03-09T07:42:02.449Z,99367.94
2019-03-09T07:44:34.480Z,99369.74
2019-03-09T07:47:07.271Z,99361.56
2019-03-09T07:49:39.452Z,99372.17
2019-03-09T07:52:36.661Z,99387.27
2019-03-09T07:55:10.703Z,99376.20
2019-03-09T07:57:43.280Z,99381.98
2019-03-09T08:00:20.260Z,99372.59
2019-03-09T08:02:52.529Z,99378.62
2019-03-09T08:05:25.480Z,99363.16
2019-03-09T08:07:57.066Z,99373.92
2019-03-09T08:10:29.256Z,99386.95
2019-03-09T08:13:01.815Z,99422.33
2019-03-09T08:15:34.038Z,99371.88
2019-03-09T08:18:07.215Z,99383.94
2019-03-09T08:20:39.173Z,99393.25
2019-03-09T08:23:10.820Z,99384.44
2019-03-09T08:25:44.039Z,99392.03
2019-03-09T08:28:16.660Z,99403.23
2019-03-09T08:30:50.201Z,99413.14
2019-03-09T08:33:21.640Z,99397.33
2019-03-09T08:35:53.785Z,99401.78
2019-03-09T08:38:27.088Z,99412.39
2019-03-09T08:40:59.770Z,99405.37
2019-03-09T08:43:32.144Z,99401.58
2019-03-09T08:46:05.625Z,99395.91
2019-03-09T08:48:37.112Z,99407.73
2019-03-09T08:51:09.021Z,99405.31
2019-03-09T08:53:41.021Z,99410.30
2019-03-09T08:56:11.488Z,99428.58
2019-03-09T08:58:42.013Z,99426.98
2019-03-09T09:01:12.196Z,99406.56
2019-03-09T09:03:42.716Z,99409.48
2019-03-09T09:06:12.970Z,99412.14
2019-03-09T09:08:43.702Z,99419.38
2019-03-09T09:11:14.363Z,99442.45
2019-03-09T09:13:44.669Z,99409.97
2019-03-09T09:16:15.526Z,99421.21
2019-03-09T09:18:46.015Z,99439.81
2019-03-09T09:21:17.113Z,99452.03
2019-03-09T09:23:47.642Z,99449.47
2019-03-09T09:26:17.928Z,99460.01
2019-03-09T09:28:48.560Z,99481.63
2019-03-09T09:31:19.199Z,99478.72
2019-03-09T09:33:49.393Z,99484.28
2019-03-09T09:36:20.140Z,99478.47
2019-03-09T09:38:50.356Z,99490.69
2019-03-09T09:41:21.711Z,99488.28
2019-03-09T09:43:52.316Z,99491.28
2019-03-09T09:46:22.585Z,99501.06
2019-03-09T09:48:52.810Z,99510.00
2019-03-09T09:51:27.453Z,99520.53
2019-03-09T09:53:58.415Z,99524.98
2019-03-09T09:56:28.929Z,99537.53
2019-03-09T09:58:59.643Z,99537.94
2019-03-09T10:01:33.869Z,99538.13
2019-03-09T10:04:05.086Z,99547.61
2019-03-09T10:06:37.648Z,99548.13
2019-03-09T10:09:08.533Z,99538.03
2019-03-09T10:11:39.129Z,99555.23
2019-03-09T10:14:12.923Z,99566.03
2019-03-09T10:16:44.798Z,99560.39
2019-03-09T10:19:15.823Z,99554.22
2019-03-09T10:21:46.702Z,99573.39
2019-03-09T10:24:17.454Z,99553.27
2019-03-09T10:26:52.032Z,99565.95
2019-03-09T10:29:23.213Z,99565.80
2019-03-09T10:31:54.030Z,99544.69
2019-03-09T10:34:24.396Z,99542.41
2019-03-09T10:36:55.281Z,99575.23
2019-03-09T10:39:26.194Z,99588.00
2019-03-09T10:41:57.241Z,99577.33
2019-03-09T10:44:27.890Z,99581.64
2019-03-09T10:46:58.994Z,99576.57
2019-03-09T10:49:29.624Z,99567.21
2019-03-09T10:51:59.893Z,99576.17
2019-03-09T10:54:35.927Z,99562.17
2019-03-09T10:57:02.194Z,99602.09
2019-03-09T10:59:36.206Z,99585.89
2019-03-09T11:02:07.209Z,99596.66
2019-03-09T11:04:38.831Z,99599.28
2019-03-09T11:07:09.396Z,99578.89
2019-03-09T11:09:40.909Z,99584.22
2019-03-09T11:12:11.609Z,99604.13
2019-03-09T11:14:44.623Z,99619.42
2019-03-09T11:17:16.714Z,99611.13
2019-03-09T11:19:46.880Z,99615.07
2019-03-09T11:22:17.100Z,99608.50
2019-03-09T11:24:50.887Z,99606.03
2019-03-09T11:27:21.338Z,99630.26
2019-03-09T11:29:51.552Z,99604.69
2019-03-09T11:32:21.787Z,99618.89
2019-03-09T11:34:51.999Z,99623.09
2019-03-09T11:37:22.542Z,99634.02
2019-03-09T11:39:55.516Z,99627.47
2019-03-09T11:42:25.770Z,99614.80
2019-03-09T11:44:56.266Z,99624.17
2019-03-09T11:47:26.583Z,99640.33
2019-03-09T11:49:56.874Z,99608.70
2019-03-09T11:52:29.070Z,99634.49
2019-03-09T11:54:58.999Z,99640.20
2019-03-09T11:57:29.422Z,99626.77
2019-03-09T12:00:00.422Z,99642.36
2019-03-09T12:02:38.523Z,99646.50
2019-03-09T12:05:02.565Z,99638.76
2019-03-09T12:07:32.792Z,99644.77
2019-03-09T12:10:03.021Z,99639.67
2019-03-09T12:12:33.311Z,99634.22
2019-03-09T12:15:04.092Z,99625.31
2019-03-09T12:17:34.379Z,99627.23
2019-03-09T12:20:05.432Z,99631.30
2019-03-09T12:22:35.631Z,99623.16
2019-03-09T12:25:07.319Z,99636.47
2019-03-09T12:27:37.508Z,99636.30
2019-03-09T12:30:09.946Z,99619.02
2019-03-09T12:32:40.534Z,99606.91
2019-03-09T12:35:11.368Z,99607.76
2019-03-09T12:37:41.964Z,99610.19
2019-03-09T12:40:14.755Z,99603.67
2019-03-09T12:42:45.311Z,99607.30
2019-03-09T12:45:16.167Z,99617.34
2019-03-09T12:47:47.559Z,99616.49
2019-03-09T12:50:24.014Z,99614.06
2019-03-09T12:52:54.775Z,99610.01
2019-03-09T12:55:24.997Z,99613.19
2019-03-09T12:57:55.779Z,99602.81
2019-03-09T13:00:26.668Z,99613.83
2019-03-09T13:02:57.146Z,99609.72
2019-03-09T13:05:27.429Z,99613.36
2019-03-09T13:07:58.230Z,99600.41
2019-03-09T13:10:28.747Z,99613.49
2019-03-09T13:12:58.924Z,99616.25
2019-03-09T13:15:30.431Z,99607.19
2019-03-09T13:18:00.650Z,99597.53
2019-03-09T13:20:31.856Z,99579.63
2019-03-09T13:23:02.519Z,99600.30
2019-03-09T13:25:32.716Z,99596.56
2019-03-09T13:28:03.226Z,99600.77
2019-03-09T13:30:33.461Z,99593.16
2019-03-09T13:33:03.889Z,99588.94
2019-03-09T13:35:34.494Z,99591.00
2019-03-09T13:38:04.707Z,99606.00
2019-03-09T13:40:35.344Z,99586.05
2019-03-09T13:43:05.686Z,99588.20
2019-03-09T13:45:37.165Z,99579.36
2019-03-09T13:48:07.699Z,99592.78
2019-03-09T13:50:38.587Z,99591.33
2019-03-09T13:53:09.327Z,99596.75
2019-03-09T13:55:39.874Z,99570.78
2019-03-09T13:58:10.836Z,99579.11
2019-03-09T14:00:44.177Z,99566.20
2019-03-09T14:03:14.339Z,99564.02
2019-03-09T14:05:44.543Z,99557.02
2019-03-09T14:08:15.222Z,99555.18
2019-03-09T14:10:45.463Z,99548.89
2019-03-09T14:13:17.722Z,99550.12
2019-03-09T14:15:48.045Z,99550.73
2019-03-09T14:18:18.755Z,99540.58
2019-03-09T14:20:49.623Z,99541.65
2019-03-09T14:23:22.731Z,99536.47
2019-03-09T14:25:53.568Z,99532.36
2019-03-09T14:28:24.249Z,99524.98
2019-03-09T14:30:54.769Z,99508.67
2019-03-09T14:33:25.237Z,99519.80
2019-03-09T14:35:55.970Z,99501.78
2019-03-09T14:38:26.251Z,99509.64
2019-03-09T14:40:57.840Z,99507.33
2019-03-09T14:43:28.235Z,99494.25
2019-03-09T14:45:58.503Z,99511.13
2019-03-09T14:48:29.131Z,99501.20
2019-03-09T14:50:59.398Z,99505.48
2019-03-09T14:53:30.492Z,99502.98
2019-03-09T14:56:01.020Z,99512.52
2019-03-09T14:58:31.567Z,99503.05
2019-03-09T15:01:01.780Z,99523.59
2019-03-09T15:03:32.924Z,99512.36
2019-03-09T15:06:03.130Z,99516.36
2019-03-09T15:08:33.314Z,99518.75
2019-03-09T15:11:05.329Z,99502.11
2019-03-09T15:13:35.543Z,99479.03
2019-03-09T15:16:06.886Z,99470.55
2019-03-09T15:18:37.898Z,99461.76
2019-03-09T15:21:08.272Z,99448.81
2019-03-09T15:23:38.735Z,99433.77
2019-03-09T15:26:09.393Z,99429.72
2019-03-09T15:28:40.024Z,99412.02
2019-03-09T15:31:10.597Z,99405.69
2019-03-09T15:33:41.182Z,99395.09
2019-03-09T15:36:11.795Z,99380.55
2019-03-09T15:38:42.060Z,99384.41
2019-03-09T15:41:12.484Z,99368.69
2019-03-09T15:43:43.158Z,99350.73
2019-03-09T15:46:13.506Z,99346.52
2019-03-09T15:48:44.314Z,99352.60
2019-03-09T15:51:14.504Z,99344.09
2019-03-09T15:53:45.312Z,99334.22
2019-03-09T15:56:16.703Z,99328.84
2019-03-09T15:58:47.520Z,99324.63
2019-03-09T16:01:18.441Z,99307.41
2019-03-09T16:03:49.162Z,99297.04
2019-03-09T16:06:19.505Z,99292.70
2019-03-09T16:08:49.929Z,99281.77
2019-03-09T16:11:22.569Z,99279.87
2019-03-09T16:13:53.144Z,99274.56
2019-03-09T16:16:23.514Z,99263.45
2019-03-09T16:18:54.523Z,99255.50
2019-03-09T16:21:25.433Z,99260.33
2019-03-09T16:23:58.113Z,99255.84
2019-03-09T16:26:28.915Z,99242.59
2019-03-09T16:28:59.769Z,99249.94
2019-03-09T16:31:31.077Z,99256.44
2019-03-09T16:34:02.298Z,99262.59
2019-03-09T16:36:32.683Z,99280.90
2019-03-09T16:39:04.608Z,99311.58
2019-03-09T16:41:35.547Z,99337.55
2019-03-09T16:44:06.121Z,99354.25
2019-03-09T16:46:36.540Z,99364.19
2019-03-09T16:49:07.341Z,99390.58
2019-03-09T16:51:37.869Z,99405.23
2019-03-09T16:54:08.196Z,99413.53
2019-03-09T16:56:41.410Z,99423.09
2019-03-09T16:59:11.800Z,99428.09
2019-03-09T17:01:41.962Z,99420.88
2019-03-09T17:04:12.522Z,99423.74
2019-03-09T17:06:42.687Z,99423.11
2019-03-09T17:09:13.244Z,99424.52
2019-03-09T17:11:43.883Z,99427.06
2019-03-09T17:14:15.357Z,99423.87
2019-03-09T17:16:45.633Z,99427.44
2019-03-09T17:19:16.143Z,99437.11
2019-03-09T17:21:46.562Z,99436.41
2019-03-09T17:24:17.405Z,99427.43
2019-03-09T17:26:48.017Z,99410.70
2019-03-09T17:29:18.448Z,99429.55
2019-03-09T17:31:49.511Z,99458.14
2019-03-09T17:34:21.678Z,99488.25
2019-03-09T17:36:52.190Z,99486.17
2019-03-09T17:39:23.026Z,99477.19
2019-03-09T17:41:53.318Z,99487.36
2019-03-09T17:44:23.727Z,99498.87
2019-03-09T17:46:54.466Z,99507.91
2019-03-09T17:49:25.825Z,99506.69
2019-03-09T17:51:56.319Z,99509.03
2019-03-09T17:54:27.057Z,99515.24
2019-03-09T17:56:58.033Z,99526.69
2019-03-09T17:59:29.249Z,99525.08
2019-03-09T18:01:59.666Z,99539.28
2019-03-09T18:04:30.257Z,99542.09
2019-03-09T18:07:00.721Z,99550.75
2019-03-09T18:09:31.590Z,99559.41
2019-03-09T18:12:01.871Z,99564.50
2019-03-09T18:14:32.107Z,99582.94
2019-03-09T18:17:03.152Z,99585.19
2019-03-09T18:19:35.225Z,99589.70
2019-03-09T18:22:05.693Z,99591.20
2019-03-09T18:24:36.254Z,99607.47
2019-03-09T18:27:08.972Z,99615.84
2019-03-09T18:29:39.701Z,99619.87
2019-03-09T18:32:11.670Z,99625.58
2019-03-09T18:34:42.769Z,99635.20
2019-03-09T18:37:13.608Z,99635.20
2019-03-09T18:39:45.593Z,99643.11
2019-03-09T18:42:17.237Z,99649.28
2019-03-09T18:44:48.059Z,99644.42
2019-03-09T18:47:18.909Z,99660.61
2019-03-09T18:49:49.609Z,99660.81
2019-03-09T18:52:20.932Z,99667.94
2019-03-09T18:54:52.449Z,99677.98
2019-03-09T18:57:23.521Z,99682.05
2019-03-09T18:59:54.630Z,99683.19
2019-03-09T19:02:24.897Z,99678.53
2019-03-09T19:04:56.604Z,99678.36
2019-03-09T19:07:27.461Z,99674.27
2019-03-09T19:09:58.213Z,99676.81
2019-03-09T19:12:28.467Z,99668.45
2019-03-09T19:15:02.051Z,99674.72
2019-03-09T19:17:33.417Z,99675.86
2019-03-09T19:20:03.676Z,99675.53
2019-03-09T19:22:34.767Z,99677.80
2019-03-09T19:25:05.547Z,99686.14
2019-03-09T19:27:37.407Z,99691.09
2019-03-09T19:30:10.095Z,99703.14
2019-03-09T19:32:41.065Z,99707.42
2019-03-09T19:35:12.038Z,99713.09
2019-03-09T19:37:42.771Z,99718.22
2019-03-09T19:40:14.577Z,99725.60
2019-03-09T19:42:45.340Z,99715.08
2019-03-09T19:45:15.888Z,99720.07
2019-03-09T19:47:46.710Z,99718.28
2019-03-09T19:50:18.335Z,99714.60
2019-03-09T19:52:49.078Z,99725.45
2019-03-09T19:55:20.304Z,99709.04
2019-03-09T19:57:51.872Z,99718.75
2019-03-09T20:00:23.039Z,99720.92
2019-03-09T20:02:54.434Z,99713.84
2019-03-09T20:05:26.265Z,99712.47
2019-03-09T20:07:57.341Z,99720.66
2019-03-09T20:10:27.751Z,99716.61
2019-03-09T20:12:58.710Z,99722.36
2019-03-09T20:15:32.345Z,99743.95
2019-03-09T20:18:04.355Z,99744.81
2019-03-09T20:20:36.717Z,99756.31
2019-03-09T20:23:07.829Z,99756.41
2019-03-09T20:25:40.195Z,99766.41
2019-03-09T20:28:12.105Z,99781.49
2019-03-09T20:30:43.072Z,99772.63
2019-03-09T20:33:13.320Z,99773.86
2019-03-09T20:35:44.096Z,99780.74
2019-03-09T20:38:14.518Z,99792.00
2019-03-09T20:40:45.339Z,99789.64
2019-03-09T20:43:16.102Z,99786.34
2019-03-09T20:45:46.781Z,99785.67
2019-03-09T20:48:17.743Z,99793.07
2019-03-09T20:50:48.480Z,99786.09
2019-03-09T20:53:19.048Z,99794.27
2019-03-09T20:55:49.986Z,99776.91
2019-03-09T20:58:20.813Z,99778.48
2019-03-09T21:00:51.451Z,99786.97
2019-03-09T21:03:22.997Z,99798.47
2019-03-09T21:05:53.795Z,99788.47
2019-03-09T21:08:24.364Z,99797.24
2019-03-09T21:11:03.325Z,99801.87
2019-03-09T21:13:28.220Z,99821.52
2019-03-09T21:15:58.970Z,99812.66
2019-03-09T21:18:29.252Z,99806.81
2019-03-09T21:20:59.778Z,99815.02
2019-03-09T21:23:30.412Z,99821.71
2019-03-09T21:26:01.267Z,99812.84
2019-03-09T21:28:32.434Z,99814.27
2019-03-09T21:31:03.452Z,99813.03
2019-03-09T21:33:34.031Z,99809.16
2019-03-09T21:36:04.851Z,99812.28
2019-03-09T21:38:35.472Z,99812.56
2019-03-09T21:41:05.751Z,99816.62
2019-03-09T21:43:37.420Z,99816.91
2019-03-09T21:46:08.102Z,99810.11
2019-03-09T21:48:38.567Z,99823.60
2019-03-09T21:51:10.054Z,99816.84
2019-03-09T21:53:40.409Z,99821.56
2019-03-09T21:56:11.660Z,99818.35
2019-03-09T21:58:42.322Z,99799.86
2019-03-09T22:01:13.313Z,99807.44
2019-03-09T22:03:43.943Z,99796.68
2019-03-09T22:06:15.105Z,99803.47
2019-03-09T22:08:45.630Z,99805.02
2019-03-09T22:11:16.362Z,99805.20
2019-03-09T22:13:47.021Z,99800.19
2019-03-09T22:16:17.575Z,99805.41
2019-03-09T22:18:48.391Z,99804.53
2019-03-09T22:21:19.713Z,99814.25
2019-03-09T22:23:50.606Z,99813.72
2019-03-09T22:26:21.615Z,99816.73
2019-03-09T22:28:52.466Z,99813.91
2019-03-09T22:31:23.033Z,99815.03
2019-03-09T22:33:53.589Z,99823.08
2019-03-09T22:36:24.246Z,99824.11
2019-03-09T22:38:56.004Z,99831.69
2019-03-09T22:41:30.085Z,99837.73
2019-03-09T22:44:00.687Z,99812.25
2019-03-09T22:46:31.373Z,99831.13
2019-03-09T22:49:02.369Z,99840.30
2019-03-09T22:51:32.975Z,99851.73
2019-03-09T22:54:03.187Z,99829.64
2019-03-09T22:56:33.431Z,99836.81
2019-03-09T22:59:04.071Z,99831.89
2019-03-09T23:01:34.434Z,99834.91
2019-03-09T23:04:06.661Z,99840.08
2019-03-09T23:06:37.064Z,99832.03
2019-03-09T23:09:07.519Z,99834.41
2019-03-09T23:11:37.711Z,99835.69
2019-03-09T23:14:08.368Z,99834.73
2019-03-09T23:16:38.877Z,99848.66
2019-03-09T23:19:09.171Z,99852.89
2019-03-09T23:21:39.968Z,99845.59
2019-03-09T23:24:10.295Z,99842.77
2019-03-09T23:26:40.887Z,99857.13
2019-03-09T23:29:11.522Z,99829.14
2019-03-09T23:31:41.836Z,99852.77
2019-03-09T23:34:12.059Z,99839.83
2019-03-09T23:36:42.374Z,99833.09
2019-03-09T23:39:15.335Z,99842.00
2019-03-09T23:41:45.794Z,99852.49
2019-03-09T23:44:16.081Z,99833.84
2019-03-09T23:46:46.938Z,99852.02
2019-03-09T23:49:17.178Z,99842.38
2019-03-09T23:51:47.691Z,99840.57
2019-03-09T23:54:18.227Z,99826.84
2019-03-09T23:56:48.504Z,99853.34
2019-03-09T23:59:19.321Z,99849.84
